sensor_id;sensor_type;location;lat;lon;timestamp;pressure;altitude;pressure_sealevel;temperature;humidity
49104;BME280;34915;52.926;11.116;2023-05-09T00:01:11;102143.53;;;11.02;62.35
49104;BME280;34915;52.926;11.116;2023-05-09T00:03:40;102139.53;;;10.94;64.59
49104;BME280;34915;52.926;11.116;2023-05-09T00:06:07;102141.38;;;10.92;64.14
49104;BME280;34915;52.926;11.116;2023-05-09T00:08:33;102135.69;;;10.82;63.98
49104;BME280;34915;52.926;11.116;2023-05-09T00:11:00;102124.44;;;10.78;64.85
49104;BME280;34915;52.926;11.116;2023-05-09T00:13:26;102134.19;;;10.77;64.62
49104;BME280;34915;52.926;11.116;2023-05-09T00:15:52;102118.84;;;10.67;64.11
49104;BME280;34915;52.926;11.116;2023-05-09T00:18:21;102127.25;;;10.75;63.50
49104;BME280;34915;52.926;11.116;2023-05-09T00:20:48;102132.69;;;10.72;63.84
49104;BME280;34915;52.926;11.116;2023-05-09T00:23:13;102123.97;;;10.70;65.45
49104;BME280;34915;52.926;11.116;2023-05-09T00:25:39;102117.09;;;10.66;65.02
49104;BME280;34915;52.926;11.116;2023-05-09T00:28:05;102103.53;;;10.55;65.91
49104;BME280;34915;52.926;11.116;2023-05-09T00:30:30;102111.94;;;10.63;65.74
49104;BME280;34915;52.926;11.116;2023-05-09T00:32:56;102118.97;;;10.64;65.63
49104;BME280;34915;52.926;11.116;2023-05-09T00:35:22;102119.13;;;10.61;66.12
49104;BME280;34915;52.926;11.116;2023-05-09T00:37:47;102110.53;;;10.56;65.46
49104;BME280;34915;52.926;11.116;2023-05-09T00:40:13;102110.53;;;10.56;66.51
49104;BME280;34915;52.926;11.116;2023-05-09T00:42:38;102112.56;;;10.51;66.24
49104;BME280;34915;52.926;11.116;2023-05-09T00:45:05;102100.69;;;10.41;67.15
49104;BME280;34915;52.926;11.116;2023-05-09T00:47:32;102107.88;;;10.39;66.82
49104;BME280;34915;52.926;11.116;2023-05-09T00:49:58;102090.63;;;10.31;66.26
49104;BME280;34915;52.926;11.116;2023-05-09T00:52:25;102097.56;;;10.33;67.50
49104;BME280;34915;52.926;11.116;2023-05-09T00:54:52;102093.50;;;10.26;67.80
49104;BME280;34915;52.926;11.116;2023-05-09T00:57:17;102092.88;;;10.21;67.99
49104;BME280;34915;52.926;11.116;2023-05-09T00:59:43;102087.88;;;10.15;69.36
49104;BME280;34915;52.926;11.116;2023-05-09T01:02:09;102075.84;;;10.08;69.08
49104;BME280;34915;52.926;11.116;2023-05-09T01:04:35;102074.13;;;10.07;68.92
49104;BME280;34915;52.926;11.116;2023-05-09T01:07:03;102086.28;;;10.11;70.10
49104;BME280;34915;52.926;11.116;2023-05-09T01:12:46;102086.88;;;9.99;70.79
49104;BME280;34915;52.926;11.116;2023-05-09T01:17:54;102067.69;;;9.94;69.85
49104;BME280;34915;52.926;11.116;2023-05-09T01:23:03;102059.38;;;9.83;69.56
49104;BME280;34915;52.926;11.116;2023-05-09T01:25:53;102073.38;;;9.85;71.60
49104;BME280;34915;52.926;11.116;2023-05-09T01:28:32;102071.16;;;9.77;70.27
49104;BME280;34915;52.926;11.116;2023-05-09T01:30:59;102066.78;;;9.76;71.41
49104;BME280;34915;52.926;11.116;2023-05-09T01:33:25;102063.66;;;9.68;70.66
49104;BME280;34915;52.926;11.116;2023-05-09T01:35:59;102074.09;;;9.71;71.28
49104;BME280;34915;52.926;11.116;2023-05-09T01:38:27;102071.81;;;9.63;70.81
49104;BME280;34915;52.926;11.116;2023-05-09T01:40:56;102062.50;;;9.55;71.12
49104;BME280;34915;52.926;11.116;2023-05-09T01:43:26;102066.19;;;9.51;70.91
49104;BME280;34915;52.926;11.116;2023-05-09T01:45:54;102067.94;;;9.52;73.88
49104;BME280;34915;52.926;11.116;2023-05-09T01:48:22;102056.81;;;9.44;72.97
49104;BME280;34915;52.926;11.116;2023-05-09T01:50:52;102052.75;;;9.37;72.96
49104;BME280;34915;52.926;11.116;2023-05-09T01:53:21;102057.91;;;9.40;73.70
49104;BME280;34915;52.926;11.116;2023-05-09T01:55:47;102049.03;;;9.41;74.06
49104;BME280;34915;52.926;11.116;2023-05-09T01:58:16;102047.47;;;9.37;73.40
49104;BME280;34915;52.926;11.116;2023-05-09T02:00:43;102048.47;;;9.34;74.00
49104;BME280;34915;52.926;11.116;2023-05-09T02:03:09;102047.59;;;9.34;74.26
49104;BME280;34915;52.926;11.116;2023-05-09T02:05:36;102045.88;;;9.33;74.25
49104;BME280;34915;52.926;11.116;2023-05-09T02:08:01;102050.19;;;9.35;74.89
49104;BME280;34915;52.926;11.116;2023-05-09T02:10:28;102026.00;;;9.25;74.06
49104;BME280;34915;52.926;11.116;2023-05-09T02:12:55;102035.44;;;9.30;74.78
49104;BME280;34915;52.926;11.116;2023-05-09T02:15:21;102038.00;;;9.32;74.83
49104;BME280;34915;52.926;11.116;2023-05-09T02:17:47;102033.56;;;9.32;74.78
49104;BME280;34915;52.926;11.116;2023-05-09T02:20:13;102036.88;;;9.37;73.67
49104;BME280;34915;52.926;11.116;2023-05-09T02:22:39;102029.03;;;9.35;74.97
49104;BME280;34915;52.926;11.116;2023-05-09T02:25:08;102035.16;;;9.36;74.35
49104;BME280;34915;52.926;11.116;2023-05-09T02:27:37;102025.44;;;9.36;74.37
49104;BME280;34915;52.926;11.116;2023-05-09T02:30:06;102027.44;;;9.32;74.87
49104;BME280;34915;52.926;11.116;2023-05-09T02:32:33;102004.97;;;9.22;75.36
49104;BME280;34915;52.926;11.116;2023-05-09T02:35:02;102014.44;;;9.27;74.22
49104;BME280;34915;52.926;11.116;2023-05-09T02:37:29;102025.50;;;9.35;74.21
49104;BME280;34915;52.926;11.116;2023-05-09T02:39:55;102014.44;;;9.27;73.91
49104;BME280;34915;52.926;11.116;2023-05-09T02:42:25;102024.72;;;9.33;74.85
49104;BME280;34915;52.926;11.116;2023-05-09T02:44:51;102019.56;;;9.30;75.13
49104;BME280;34915;52.926;11.116;2023-05-09T02:47:18;102015.13;;;9.31;75.05
49104;BME280;34915;52.926;11.116;2023-05-09T02:49:43;102019.84;;;9.24;75.22
49104;BME280;34915;52.926;11.116;2023-05-09T02:52:09;102019.84;;;9.24;75.71
49104;BME280;34915;52.926;11.116;2023-05-09T02:54:36;102011.13;;;9.22;74.47
49104;BME280;34915;52.926;11.116;2023-05-09T02:57:05;102012.97;;;9.20;75.74
49104;BME280;34915;52.926;11.116;2023-05-09T02:59:31;102006.09;;;9.16;75.55
49104;BME280;34915;52.926;11.116;2023-05-09T03:01:57;102006.53;;;9.07;76.69
49104;BME280;34915;52.926;11.116;2023-05-09T03:04:23;102007.41;;;9.08;76.14
49104;BME280;34915;52.926;11.116;2023-05-09T03:06:50;102002.28;;;9.03;76.16
49104;BME280;34915;52.926;11.116;2023-05-09T03:09:18;102006.66;;;9.04;76.59
49104;BME280;34915;52.926;11.116;2023-05-09T03:11:46;102003.25;;;9.02;77.25
49104;BME280;34915;52.926;11.116;2023-05-09T03:14:12;102015.41;;;9.06;76.91
49104;BME280;34915;52.926;11.116;2023-05-09T03:16:41;102000.59;;;9.02;75.93
49104;BME280;34915;52.926;11.116;2023-05-09T03:19:06;102005.06;;;9.00;75.49
49104;BME280;34915;52.926;11.116;2023-05-09T03:21:33;102002.44;;;9.00;76.39
49104;BME280;34915;52.926;11.116;2023-05-09T03:23:58;102003.38;;;8.99;77.17
49104;BME280;34915;52.926;11.116;2023-05-09T03:26:24;102003.38;;;8.99;77.37
49104;BME280;34915;52.926;11.116;2023-05-09T03:29:09;101994.78;;;8.94;76.43
49104;BME280;34915;52.926;11.116;2023-05-09T03:31:34;101997.34;;;8.96;77.81
49104;BME280;34915;52.926;11.116;2023-05-09T03:34:00;101989.63;;;8.91;77.96
49104;BME280;34915;52.926;11.116;2023-05-09T03:36:26;101992.06;;;8.96;77.33
49104;BME280;34915;52.926;11.116;2023-05-09T03:38:51;101988.06;;;8.87;77.33
49104;BME280;34915;52.926;11.116;2023-05-09T03:41:17;101988.91;;;8.88;77.74
49104;BME280;34915;52.926;11.116;2023-05-09T03:43:43;101990.63;;;8.89;78.31
49104;BME280;34915;52.926;11.116;2023-05-09T03:46:09;101981.19;;;8.83;77.31
49104;BME280;34915;52.926;11.116;2023-05-09T03:48:34;101984.75;;;8.82;78.26
49104;BME280;34915;52.926;11.116;2023-05-09T03:51:00;101991.75;;;8.83;78.47
49104;BME280;34915;52.926;11.116;2023-05-09T03:53:27;101988.34;;;8.82;78.72
49104;BME280;34915;52.926;11.116;2023-05-09T03:55:52;101993.63;;;8.82;78.60
49104;BME280;34915;52.926;11.116;2023-05-09T03:58:18;101994.59;;;8.79;77.79
49104;BME280;34915;52.926;11.116;2023-05-09T04:00:44;101994.47;;;8.82;78.83
49104;BME280;34915;52.926;11.116;2023-05-09T04:03:10;101986.47;;;8.83;78.98
49104;BME280;34915;52.926;11.116;2023-05-09T04:05:36;101990.78;;;8.86;78.82
49104;BME280;34915;52.926;11.116;2023-05-09T04:08:02;101990.03;;;8.82;78.85
49104;BME280;34915;52.926;11.116;2023-05-09T04:10:29;101990.91;;;8.83;79.94
49104;BME280;34915;52.926;11.116;2023-05-09T04:12:55;101984.75;;;8.82;78.78
49104;BME280;34915;52.926;11.116;2023-05-09T04:15:21;101981.31;;;8.81;78.61
49104;BME280;34915;52.926;11.116;2023-05-09T04:17:47;102002.19;;;8.86;78.13
49104;BME280;34915;52.926;11.116;2023-05-09T04:20:12;102004.06;;;8.84;78.20
49104;BME280;34915;52.926;11.116;2023-05-09T04:22:38;102004.97;;;8.83;77.42
49104;BME280;34915;52.926;11.116;2023-05-09T04:25:04;101999.47;;;8.88;79.11
49104;BME280;34915;52.926;11.116;2023-05-09T04:27:29;101994.78;;;8.94;79.11
49104;BME280;34915;52.926;11.116;2023-05-09T04:29:56;102003.25;;;9.02;79.09
49104;BME280;34915;52.926;11.116;2023-05-09T04:32:21;101996.22;;;9.01;78.38
49104;BME280;34915;52.926;11.116;2023-05-09T04:34:48;102000.31;;;9.08;78.73
49104;BME280;34915;52.926;11.116;2023-05-09T04:37:13;101996.91;;;9.06;79.55
49104;BME280;34915;52.926;11.116;2023-05-09T04:39:39;101979.44;;;9.02;78.35
49104;BME280;34915;52.926;11.116;2023-05-09T04:42:05;101978.41;;;9.06;79.01
49104;BME280;34915;52.926;11.116;2023-05-09T04:44:30;101973.75;;;9.11;79.14
49104;BME280;34915;52.926;11.116;2023-05-09T04:46:57;101969.22;;;9.13;78.87
49104;BME280;34915;52.926;11.116;2023-05-09T04:49:23;101974.91;;;9.24;79.06
49104;BME280;34915;52.926;11.116;2023-05-09T04:51:49;101983.63;;;9.26;77.88
49104;BME280;34915;52.926;11.116;2023-05-09T04:54:15;101962.47;;;9.26;78.49
49104;BME280;34915;52.926;11.116;2023-05-09T04:56:41;101956.13;;;9.30;77.54
49104;BME280;34915;52.926;11.116;2023-05-09T04:59:07;101967.84;;;9.43;76.83
49104;BME280;34915;52.926;11.116;2023-05-09T05:01:33;101952.91;;;9.42;78.23
49104;BME280;34915;52.926;11.116;2023-05-09T05:03:58;101948.22;;;9.47;77.97
49104;BME280;34915;52.926;11.116;2023-05-09T05:06:24;101958.25;;;9.59;76.87
49104;BME280;34915;52.926;11.116;2023-05-09T05:09:04;101955.94;;;9.70;77.04
49104;BME280;34915;52.926;11.116;2023-05-09T05:11:30;101955.81;;;9.73;75.93
49104;BME280;34915;52.926;11.116;2023-05-09T05:13:55;101955.19;;;9.84;75.73
49104;BME280;34915;52.926;11.116;2023-05-09T05:16:21;101960.34;;;9.87;76.80
49104;BME280;34915;52.926;11.116;2023-05-09T05:18:47;101935.75;;;9.85;76.99
49104;BME280;34915;52.926;11.116;2023-05-09T05:21:12;101947.66;;;9.95;75.07
49104;BME280;34915;52.926;11.116;2023-05-09T05:23:38;101948.03;;;10.05;73.21
49104;BME280;34915;52.926;11.116;2023-05-09T05:26:03;101957.16;;;10.16;74.56
49104;BME280;34915;52.926;11.116;2023-05-09T05:28:29;101952.59;;;10.20;75.00
49104;BME280;34915;52.926;11.116;2023-05-09T05:30:55;101947.81;;;10.26;74.69
49104;BME280;34915;52.926;11.116;2023-05-09T05:33:20;101945.50;;;10.37;74.41
49104;BME280;34915;52.926;11.116;2023-05-09T05:35:46;101931.31;;;10.38;77.13
49104;BME280;34915;52.926;11.116;2023-05-09T05:38:12;101932.88;;;10.42;74.34
49104;BME280;34915;52.926;11.116;2023-05-09T05:40:37;101927.19;;;10.49;73.06
49104;BME280;34915;52.926;11.116;2023-05-09T05:43:03;101929.19;;;10.61;72.94
49104;BME280;34915;52.926;11.116;2023-05-09T05:45:28;101924.13;;;10.74;71.88
49104;BME280;34915;52.926;11.116;2023-05-09T05:47:55;101914.59;;;10.86;72.31
49104;BME280;34915;52.926;11.116;2023-05-09T05:50:21;101915.94;;;10.93;71.67
49104;BME280;34915;52.926;11.116;2023-05-09T05:52:46;101903.16;;;11.01;71.78
49104;BME280;34915;52.926;11.116;2023-05-09T05:55:12;101912.75;;;11.19;72.51
49104;BME280;34915;52.926;11.116;2023-05-09T05:57:37;101903.53;;;11.26;70.66
49104;BME280;34915;52.926;11.116;2023-05-09T06:00:07;101907.97;;;11.41;69.88
49104;BME280;34915;52.926;11.116;2023-05-09T06:02:36;101896.25;;;11.45;70.22
49104;BME280;34915;52.926;11.116;2023-05-09T06:05:04;101904.41;;;11.57;69.09
49104;BME280;34915;52.926;11.116;2023-05-09T06:07:31;101901.31;;;11.65;69.28
49104;BME280;34915;52.926;11.116;2023-05-09T06:09:56;101897.72;;;11.66;69.11
49104;BME280;34915;52.926;11.116;2023-05-09T06:12:24;101906.13;;;11.74;68.88
49104;BME280;34915;52.926;11.116;2023-05-09T06:14:50;101903.69;;;11.84;68.59
49104;BME280;34915;52.926;11.116;2023-05-09T06:17:16;101905.22;;;11.88;68.02
49104;BME280;34915;52.926;11.116;2023-05-09T06:19:42;101900.41;;;11.95;67.98
49104;BME280;34915;52.926;11.116;2023-05-09T06:22:07;101904.16;;;12.06;67.22
49104;BME280;34915;52.926;11.116;2023-05-09T06:24:33;101903.78;;;12.12;67.89
49104;BME280;34915;52.926;11.116;2023-05-09T06:27:00;101902.31;;;12.22;65.98
49104;BME280;34915;52.926;11.116;2023-05-09T06:29:26;101893.78;;;12.31;65.05
49104;BME280;34915;52.926;11.116;2023-05-09T06:31:52;101897.06;;;12.36;65.73
49104;BME280;34915;52.926;11.116;2023-05-09T06:34:17;101899.91;;;12.47;66.96
49104;BME280;34915;52.926;11.116;2023-05-09T06:36:43;101891.66;;;12.51;66.55
49104;BME280;34915;52.926;11.116;2023-05-09T06:39:08;101889.66;;;12.55;65.71
49104;BME280;34915;52.926;11.116;2023-05-09T06:41:34;101890.06;;;12.63;67.01
49104;BME280;34915;52.926;11.116;2023-05-09T06:44:00;101880.97;;;12.67;66.92
49104;BME280;34915;52.926;11.116;2023-05-09T06:46:27;101887.38;;;12.77;66.85
49104;BME280;34915;52.926;11.116;2023-05-09T06:48:56;101877.94;;;12.86;65.44
49104;BME280;34915;52.926;11.116;2023-05-09T06:51:21;101882.88;;;12.92;65.07
49104;BME280;34915;52.926;11.116;2023-05-09T06:53:47;101871.00;;;12.98;64.48
49104;BME280;34915;52.926;11.116;2023-05-09T06:56:12;101874.13;;;13.18;64.09
49104;BME280;34915;52.926;11.116;2023-05-09T06:58:38;101868.97;;;13.29;63.97
49104;BME280;34915;52.926;11.116;2023-05-09T07:01:04;101868.00;;;13.30;64.51
49104;BME280;34915;52.926;11.116;2023-05-09T07:03:29;101851.38;;;13.27;63.35
49104;BME280;34915;52.926;11.116;2023-05-09T07:05:55;101864.28;;;13.46;63.44
49104;BME280;34915;52.926;11.116;2023-05-09T07:08:24;101844.66;;;13.47;63.13
49104;BME280;34915;52.926;11.116;2023-05-09T07:10:49;101850.06;;;13.60;63.87
49104;BME280;34915;52.926;11.116;2023-05-09T07:13:15;101828.34;;;13.66;62.40
49104;BME280;34915;52.926;11.116;2023-05-09T07:15:43;101840.59;;;13.94;61.39
49104;BME280;34915;52.926;11.116;2023-05-09T07:18:08;101838.06;;;14.05;61.72
49104;BME280;34915;52.926;11.116;2023-05-09T07:20:34;101836.59;;;14.14;59.57
49104;BME280;34915;52.926;11.116;2023-05-09T07:22:59;101823.16;;;14.15;62.00
49104;BME280;34915;52.926;11.116;2023-05-09T07:25:28;101827.13;;;14.22;61.87
49104;BME280;34915;52.926;11.116;2023-05-09T07:27:53;101819.56;;;14.41;60.14
49104;BME280;34915;52.926;11.116;2023-05-09T07:30:19;101830.13;;;14.55;59.32
49104;BME280;34915;52.926;11.116;2023-05-09T07:32:44;101822.97;;;14.68;59.57
49104;BME280;34915;52.926;11.116;2023-05-09T07:35:10;101813.47;;;14.64;59.30
49104;BME280;34915;52.926;11.116;2023-05-09T07:37:35;101808.91;;;14.66;58.88
49104;BME280;34915;52.926;11.116;2023-05-09T07:40:02;101807.38;;;14.74;58.16
49104;BME280;34915;52.926;11.116;2023-05-09T07:42:27;101789.19;;;14.91;58.22
49104;BME280;34915;52.926;11.116;2023-05-09T07:44:54;101797.06;;;15.05;57.49
49104;BME280;34915;52.926;11.116;2023-05-09T07:47:20;101790.84;;;15.17;56.12
49104;BME280;34915;52.926;11.116;2023-05-09T07:49:46;101787.00;;;15.21;57.88
49104;BME280;34915;52.926;11.116;2023-05-09T07:52:12;101797.59;;;15.46;55.78
49104;BME280;34915;52.926;11.116;2023-05-09T07:54:38;101793.75;;;15.50;56.20
49104;BME280;34915;52.926;11.116;2023-05-09T07:57:03;101794.31;;;15.66;57.12
49104;BME280;34915;52.926;11.116;2023-05-09T07:59:29;101787.69;;;15.82;55.20
49104;BME280;34915;52.926;11.116;2023-05-09T08:01:54;101790.03;;;15.97;55.15
49104;BME280;34915;52.926;11.116;2023-05-09T08:04:20;101782.16;;;16.18;56.64
49104;BME280;34915;52.926;11.116;2023-05-09T08:06:45;101781.88;;;16.33;57.07
49104;BME280;34915;52.926;11.116;2023-05-09T08:09:11;101775.81;;;16.42;55.00
49104;BME280;34915;52.926;11.116;2023-05-09T08:11:37;101756.00;;;16.55;53.68
49104;BME280;34915;52.926;11.116;2023-05-09T08:14:02;101770.56;;;16.73;54.61
49104;BME280;34915;52.926;11.116;2023-05-09T08:16:28;101761.72;;;16.83;53.12
49104;BME280;34915;52.926;11.116;2023-05-09T08:18:53;101758.78;;;16.86;51.56
49104;BME280;34915;52.926;11.116;2023-05-09T08:21:20;101756.31;;;17.05;53.97
49104;BME280;34915;52.926;11.116;2023-05-09T08:23:45;101771.25;;;17.29;53.42
49104;BME280;34915;52.926;11.116;2023-05-09T08:26:11;101756.75;;;17.43;51.70
49104;BME280;34915;52.926;11.116;2023-05-09T08:28:37;101755.03;;;17.42;50.65
49104;BME280;34915;52.926;11.116;2023-05-09T08:31:02;101747.69;;;17.75;50.90
49104;BME280;34915;52.926;11.116;2023-05-09T08:33:28;101744.09;;;17.85;51.10
49104;BME280;34915;52.926;11.116;2023-05-09T08:35:53;101739.00;;;17.82;49.71
49104;BME280;34915;52.926;11.116;2023-05-09T08:38:19;101741.06;;;17.99;52.09
49104;BME280;34915;52.926;11.116;2023-05-09T08:40:45;101731.81;;;18.03;49.01
49104;BME280;34915;52.926;11.116;2023-05-09T08:43:11;101732.22;;;18.19;49.89
49104;BME280;34915;52.926;11.116;2023-05-09T08:45:50;101732.31;;;18.38;50.43
49104;BME280;34915;52.926;11.116;2023-05-09T08:48:18;101724.44;;;18.46;49.46
49104;BME280;34915;52.926;11.116;2023-05-09T08:50:45;101723.72;;;18.14;47.70
49104;BME280;34915;52.926;11.116;2023-05-09T08:53:11;101720.16;;;18.34;50.23
49104;BME280;34915;52.926;11.116;2023-05-09T08:55:40;101716.03;;;18.60;50.70
49104;BME280;34915;52.926;11.116;2023-05-09T08:58:06;101706.78;;;18.82;48.82
49104;BME280;34915;52.926;11.116;2023-05-09T09:00:32;101704.25;;;18.90;46.89
49104;BME280;34915;52.926;11.116;2023-05-09T09:03:01;101717.81;;;18.89;48.83
49104;BME280;34915;52.926;11.116;2023-05-09T09:05:29;101711.69;;;19.07;47.99
49104;BME280;34915;52.926;11.116;2023-05-09T09:07:56;101697.81;;;19.21;47.65
49104;BME280;34915;52.926;11.116;2023-05-09T09:10:23;101691.03;;;19.36;47.22
49104;BME280;34915;52.926;11.116;2023-05-09T09:12:53;101687.38;;;19.37;45.55
49104;BME280;34915;52.926;11.116;2023-05-09T09:15:19;101689.34;;;19.35;46.71
49104;BME280;34915;52.926;11.116;2023-05-09T09:17:49;101689.19;;;19.46;47.39
49104;BME280;34915;52.926;11.116;2023-05-09T09:20:17;101698.97;;;19.47;45.94
49104;BME280;34915;52.926;11.116;2023-05-09T09:22:46;101700.81;;;19.56;43.94
49104;BME280;34915;52.926;11.116;2023-05-09T09:25:12;101690.75;;;19.58;46.59
49104;BME280;34915;52.926;11.116;2023-05-09T09:27:38;101685.38;;;19.58;45.91
49104;BME280;34915;52.926;11.116;2023-05-09T09:30:09;101693.59;;;19.66;46.97
49104;BME280;34915;52.926;11.116;2023-05-09T09:32:35;101688.75;;;19.69;44.52
49104;BME280;34915;52.926;11.116;2023-05-09T09:35:09;101682.25;;;19.72;46.36
49104;BME280;34915;52.926;11.116;2023-05-09T09:37:37;101681.09;;;19.83;44.70
49104;BME280;34915;52.926;11.116;2023-05-09T09:40:09;101669.50;;;19.74;42.60
49104;BME280;34915;52.926;11.116;2023-05-09T09:42:46;101679.97;;;19.76;45.61
49104;BME280;34915;52.926;11.116;2023-05-09T09:45:15;101654.66;;;19.88;43.87
49104;BME280;34915;52.926;11.116;2023-05-09T09:47:42;101668.38;;;19.95;45.85
49104;BME280;34915;52.926;11.116;2023-05-09T09:50:13;101659.28;;;20.05;44.29
49104;BME280;34915;52.926;11.116;2023-05-09T09:55:14;101653.34;;;19.92;44.11
49104;BME280;34915;52.926;11.116;2023-05-09T09:57:40;101649.50;;;20.04;43.98
49104;BME280;34915;52.926;11.116;2023-05-09T10:00:09;101639.41;;;20.16;45.92
49104;BME280;34915;52.926;11.116;2023-05-09T10:02:48;101637.34;;;20.36;44.72
49104;BME280;34915;52.926;11.116;2023-05-09T10:05:28;101641.56;;;20.39;44.78
49104;BME280;34915;52.926;11.116;2023-05-09T10:07:58;101631.81;;;20.02;42.40
49104;BME280;34915;52.926;11.116;2023-05-09T10:10:32;101633.09;;;20.07;43.29
49104;BME280;34915;52.926;11.116;2023-05-09T10:13:00;101624.72;;;20.10;45.55
49104;BME280;34915;52.926;11.116;2023-05-09T10:15:28;101629.13;;;20.38;44.22
49104;BME280;34915;52.926;11.116;2023-05-09T10:17:59;101620.31;;;20.36;44.12
49104;BME280;34915;52.926;11.116;2023-05-09T10:20:29;101601.91;;;20.41;44.70
49104;BME280;34915;52.926;11.116;2023-05-09T10:22:57;101618.16;;;20.76;46.06
49104;BME280;34915;52.926;11.116;2023-05-09T10:25:31;101610.25;;;20.74;43.24
49104;BME280;34915;52.926;11.116;2023-05-09T10:27:59;101623.84;;;20.73;43.03
49104;BME280;34915;52.926;11.116;2023-05-09T10:30:36;101604.28;;;20.71;42.43
49104;BME280;34915;52.926;11.116;2023-05-09T10:33:09;101603.88;;;20.66;45.01
49104;BME280;34915;52.926;11.116;2023-05-09T10:35:39;101594.34;;;20.71;43.95
49104;BME280;34915;52.926;11.116;2023-05-09T10:38:06;101594.22;;;20.90;43.12
49104;BME280;34915;52.926;11.116;2023-05-09T10:40:33;101592.75;;;20.95;44.30
49104;BME280;34915;52.926;11.116;2023-05-09T10:42:58;101592.13;;;20.84;42.92
49104;BME280;34915;52.926;11.116;2023-05-09T10:45:24;101585.53;;;20.78;42.11
49104;BME280;34915;52.926;11.116;2023-05-09T10:47:51;101579.59;;;20.75;42.81
49104;BME280;34915;52.926;11.116;2023-05-09T10:50:21;101585.69;;;20.68;40.72
49104;BME280;34915;52.926;11.116;2023-05-09T10:58:31;101572.22;;;20.77;42.71
49104;BME280;34915;52.926;11.116;2023-05-09T11:01:05;101574.13;;;20.84;41.90
49104;BME280;34915;52.926;11.116;2023-05-09T11:03:53;101573.56;;;20.81;41.60
49104;BME280;34915;52.926;11.116;2023-05-09T11:12:09;101553.34;;;20.94;41.77
49104;BME280;34915;52.926;11.116;2023-05-09T11:17:08;101528.72;;;20.89;41.49
49104;BME280;34915;52.926;11.116;2023-05-09T11:22:27;101512.22;;;20.92;42.35
49104;BME280;34915;52.926;11.116;2023-05-09T11:25:04;101518.25;;;20.86;42.86
49104;BME280;34915;52.926;11.116;2023-05-09T11:27:48;101506.47;;;20.87;42.27
49104;BME280;34915;52.926;11.116;2023-05-09T11:30:15;101506.22;;;20.98;42.13
49104;BME280;34915;52.926;11.116;2023-05-09T11:37:53;101495.06;;;20.93;41.02
49104;BME280;34915;52.926;11.116;2023-05-09T11:40:25;101496.38;;;20.89;40.92
49104;BME280;34915;52.926;11.116;2023-05-09T11:42:53;101490.66;;;20.92;42.93
49104;BME280;34915;52.926;11.116;2023-05-09T11:45:24;101488.19;;;21.16;42.54
49104;BME280;34915;52.926;11.116;2023-05-09T11:47:51;101470.63;;;21.12;39.98
49104;BME280;34915;52.926;11.116;2023-05-09T11:50:18;101464.75;;;21.17;40.98
49104;BME280;34915;52.926;11.116;2023-05-09T11:52:45;101454.34;;;20.96;40.04
49104;BME280;34915;52.926;11.116;2023-05-09T11:55:16;101459.72;;;20.96;40.51
49104;BME280;34915;52.926;11.116;2023-05-09T11:57:45;101460.03;;;20.93;40.75
49104;BME280;34915;52.926;11.116;2023-05-09T12:00:14;101450.66;;;20.97;40.34
49104;BME280;34915;52.926;11.116;2023-05-09T12:02:42;101437.53;;;21.02;41.34
49104;BME280;34915;52.926;11.116;2023-05-09T12:05:10;101440.91;;;21.04;39.91
49104;BME280;34915;52.926;11.116;2023-05-09T12:07:36;101433.13;;;21.01;40.86
49104;BME280;34915;52.926;11.116;2023-05-09T12:10:05;101439.75;;;21.07;38.84
49104;BME280;34915;52.926;11.116;2023-05-09T12:12:33;101438.47;;;21.19;40.94
49104;BME280;34915;52.926;11.116;2023-05-09T12:15:06;101434.00;;;21.27;38.99
49104;BME280;34915;52.926;11.116;2023-05-09T12:17:32;101418.94;;;21.17;39.25
49104;BME280;34915;52.926;11.116;2023-05-09T12:19:58;101415.41;;;21.16;38.18
49104;BME280;34915;52.926;11.116;2023-05-09T12:22:30;101417.78;;;21.19;39.77
49104;BME280;34915;52.926;11.116;2023-05-09T12:24:59;101412.16;;;21.13;39.76
49104;BME280;34915;52.926;11.116;2023-05-09T12:27:26;101405.72;;;21.06;38.19
49104;BME280;34915;52.926;11.116;2023-05-09T12:29:53;101407.59;;;21.13;39.42
49104;BME280;34915;52.926;11.116;2023-05-09T12:32:20;101406.78;;;21.13;38.61
49104;BME280;34915;52.926;11.116;2023-05-09T12:34:46;101391.66;;;21.20;38.89
49104;BME280;34915;52.926;11.116;2023-05-09T12:37:17;101393.56;;;21.27;37.40
49104;BME280;34915;52.926;11.116;2023-05-09T12:40:03;101394.19;;;21.21;37.20
49104;BME280;34915;52.926;11.116;2023-05-09T12:42:30;101381.69;;;21.12;38.29
49104;BME280;34915;52.926;11.116;2023-05-09T12:44:56;101376.63;;;21.17;38.66
49104;BME280;34915;52.926;11.116;2023-05-09T12:47:26;101372.31;;;21.24;39.18
49104;BME280;34915;52.926;11.116;2023-05-09T12:49:58;101375.66;;;21.26;37.68
49104;BME280;34915;52.926;11.116;2023-05-09T12:52:41;101367.31;;;21.37;36.27
49104;BME280;34915;52.926;11.116;2023-05-09T12:55:09;101360.94;;;21.46;36.81
49104;BME280;34915;52.926;11.116;2023-05-09T12:57:36;101364.34;;;21.48;37.98
49104;BME280;34915;52.926;11.116;2023-05-09T13:00:03;101360.00;;;21.55;38.67
49104;BME280;34915;52.926;11.116;2023-05-09T13:02:36;101360.66;;;21.49;37.09
49104;BME280;34915;52.926;11.116;2023-05-09T13:05:16;101352.84;;;21.46;39.45
49104;BME280;34915;52.926;11.116;2023-05-09T13:10:16;101351.88;;;21.47;36.57
49104;BME280;34915;52.926;11.116;2023-05-09T13:12:48;101337.66;;;21.37;36.32
49104;BME280;34915;52.926;11.116;2023-05-09T13:15:16;101343.72;;;21.39;36.47
49104;BME280;34915;52.926;11.116;2023-05-09T13:17:45;101326.50;;;21.32;36.77
49104;BME280;34915;52.926;11.116;2023-05-09T13:20:11;101334.84;;;21.46;37.22